Time;durP1;ratioP1;P1;durP2;ratioP2;P2;SDS_P1;SDS_P2;PMS_P1;PMS_P2;Temp;Humidity;BMP_temperature;BMP_pressure;BME280_temperature;BME280_humidity;BME280_pressure;Samples;Min_cycle;Max_cycle;Signal;HPM_P1;HPM_P2
2022/05/11 00:00:49;;;;;;;8.75;4.75;;;16.60;87.90;;;;;;4994053;28;98552;-71
2022/05/11 00:03:16;;;;;;;9.77;4.72;;;16.60;88.10;;;;;;4993598;28;98534;-71
2022/05/11 00:05:43;;;;;;;6.28;5.28;;;16.60;88.20;;;;;;5008542;28;98611;-71
2022/05/11 00:08:10;;;;;;;7.50;4.53;;;16.60;88.30;;;;;;4992249;28;98475;-71
2022/05/11 00:10:37;;;;;;;7.47;4.30;;;16.60;88.40;;;;;;4993677;28;99710;-71
2022/05/11 00:13:05;;;;;;;7.22;4.13;;;16.60;88.20;;;;;;4992704;28;114722;-71
2022/05/11 00:15:33;;;;;;;6.95;4.55;;;16.60;88.10;;;;;;4998688;28;99200;-71
2022/05/11 00:18:01;;;;;;;5.22;4.75;;;16.60;87.90;;;;;;4995946;28;98467;-71
2022/05/11 00:20:28;;;;;;;6.90;3.90;;;16.60;87.80;;;;;;5011898;28;99374;-71
2022/05/11 00:22:57;;;;;;;6.78;4.32;;;16.60;87.80;;;;;;5013148;28;99207;-71
2022/05/11 00:25:25;;;;;;;8.05;4.75;;;16.60;87.60;;;;;;5013003;28;99066;-71
2022/05/11 00:27:57;;;;;;;6.50;4.57;;;16.70;87.50;;;;;;4996289;28;97807;-71
2022/05/11 00:30:26;;;;;;;5.50;3.88;;;16.70;87.40;;;;;;5012064;28;98525;-71
2022/05/11 00:32:54;;;;;;;5.30;3.80;;;16.70;87.30;;;;;;4994946;28;99259;-71
2022/05/11 00:35:21;;;;;;;6.03;5.20;;;16.70;87.10;;;;;;5012467;28;99155;-71
2022/05/11 00:37:49;;;;;;;4.97;3.88;;;16.60;86.90;;;;;;5011744;28;98541;-71
2022/05/11 00:40:18;;;;;;;6.30;3.33;;;16.60;86.70;;;;;;5013189;28;98535;-71
2022/05/11 00:42:45;;;;;;;6.75;4.45;;;16.60;86.20;;;;;;5012555;28;99308;-71
2022/05/11 00:45:12;;;;;;;4.55;3.47;;;16.60;85.90;;;;;;4994801;28;99113;-71
2022/05/11 00:47:44;;;;;;;6.75;4.20;;;16.60;85.70;;;;;;5013075;28;98431;-71
2022/05/11 00:50:34;;;;;;;6.13;3.85;;;16.60;85.50;;;;;;4995019;28;99051;-71
2022/05/11 00:53:09;;;;;;;7.18;3.70;;;16.60;85.20;;;;;;5013252;28;98513;-71
2022/05/11 00:55:59;;;;;;;5.70;4.38;;;16.60;85.50;;;;;;5012479;28;98534;-71
2022/05/11 00:58:35;;;;;;;5.15;3.65;;;16.60;85.30;;;;;;4995022;28;98932;-71
2022/05/11 01:01:03;;;;;;;7.03;3.60;;;16.60;85.60;;;;;;5012723;28;99174;-71
2022/05/11 01:03:55;;;;;;;5.25;4.03;;;16.50;85.60;;;;;;5012130;28;99355;-71
2022/05/11 01:06:23;;;;;;;7.15;4.38;;;16.60;85.70;;;;;;4994189;28;100183;-71
2022/05/11 01:08:50;;;;;;;5.45;3.70;;;16.50;85.90;;;;;;5011635;28;99491;-71
2022/05/11 01:11:17;;;;;;;4.32;3.53;;;16.50;86.00;;;;;;5012593;28;98577;-71
2022/05/11 01:13:46;;;;;;;5.25;4.30;;;16.50;85.90;;;;;;4994424;28;100930;-71
2022/05/11 01:16:13;;;;;;;6.05;4.90;;;16.50;85.80;;;;;;4993966;28;99061;-71
2022/05/11 01:18:40;;;;;;;5.97;4.38;;;16.50;85.70;;;;;;5011029;28;97886;-71
2022/05/11 01:21:08;;;;;;;5.38;3.60;;;16.50;85.70;;;;;;4994672;28;98562;-71
2022/05/11 01:23:41;;;;;;;7.43;4.60;;;16.50;85.80;;;;;;4993975;28;101980;-71
2022/05/11 01:26:08;;;;;;;5.60;4.30;;;16.50;85.90;;;;;;4994161;28;99321;-71
2022/05/11 01:28:41;;;;;;;8.15;4.45;;;16.50;86.20;;;;;;5012565;28;98608;-71
2022/05/11 01:31:12;;;;;;;4.68;3.83;;;16.50;86.40;;;;;;4994432;28;98570;-71
2022/05/11 01:33:42;;;;;;;6.55;4.45;;;16.40;86.60;;;;;;4993679;28;101896;-71
2022/05/11 01:36:30;;;;;;;5.22;4.68;;;16.40;86.70;;;;;;5012426;28;98983;-71
2022/05/11 01:39:02;;;;;;;6.38;4.85;;;16.50;87.00;;;;;;5012846;28;98577;-71
2022/05/11 01:41:37;;;;;;;4.78;3.90;;;16.40;87.10;;;;;;4994096;28;98527;-71
2022/05/11 01:44:08;;;;;;;7.70;5.18;;;16.40;87.00;;;;;;5012699;28;98540;-71
2022/05/11 01:46:37;;;;;;;5.82;5.05;;;16.30;87.20;;;;;;5012180;28;98478;-71
2022/05/11 01:49:05;;;;;;;8.48;4.90;;;16.30;87.40;;;;;;4993561;28;107803;-71
2022/05/11 01:51:32;;;;;;;6.63;4.53;;;16.30;87.50;;;;;;4993990;28;99375;-71
2022/05/11 01:54:00;;;;;;;5.32;4.82;;;16.30;87.60;;;;;;4977181;28;101793;-71
2022/05/11 01:56:27;;;;;;;6.38;5.75;;;16.30;87.80;;;;;;4993973;28;101723;-71
2022/05/11 01:58:54;;;;;;;7.95;4.72;;;16.30;87.80;;;;;;5010864;28;98625;-71
2022/05/11 02:01:25;;;;;;;4.70;4.18;;;16.30;87.80;;;;;;5012368;28;98888;-71
2022/05/11 02:03:53;;;;;;;5.82;4.55;;;16.30;87.90;;;;;;5010361;28;101956;-71
2022/05/11 02:09:07;;;;;;;6.75;5.80;;;16.20;87.90;;;;;;4994544;28;97932;-71
2022/05/11 02:11:34;;;;;;;7.97;4.38;;;16.20;88.00;;;;;;5011980;28;98545;-71
2022/05/11 02:14:01;;;;;;;5.38;4.25;;;16.20;88.10;;;;;;5011578;28;99350;-71
2022/05/11 02:16:28;;;;;;;5.47;4.80;;;16.20;88.30;;;;;;5010225;28;99288;-71
2022/05/11 02:18:55;;;;;;;5.82;4.57;;;16.20;88.40;;;;;;4994236;28;98546;-71
2022/05/11 02:21:23;;;;;;;6.65;4.10;;;16.20;88.50;;;;;;5012149;28;98522;-71
2022/05/11 02:23:51;;;;;;;7.30;4.55;;;16.20;88.50;;;;;;5011405;28;99411;-71
2022/05/11 02:26:19;;;;;;;6.63;4.50;;;16.20;88.60;;;;;;5011435;28;99113;-71
2022/05/11 02:28:50;;;;;;;8.20;4.43;;;16.20;88.70;;;;;;5012303;28;98582;-71
2022/05/11 02:31:18;;;;;;;5.25;4.57;;;16.20;88.70;;;;;;5013782;28;98578;-71
2022/05/11 02:33:46;;;;;;;5.35;4.10;;;16.20;88.80;;;;;;5013484;28;98675;-71
2022/05/11 02:36:13;;;;;;;6.18;5.55;;;16.20;89.00;;;;;;5014965;28;98513;-71
2022/05/11 02:38:42;;;;;;;6.85;5.40;;;16.20;89.20;;;;;;5015153;28;98410;-71
2022/05/11 02:41:09;;;;;;;7.70;4.63;;;16.20;89.20;;;;;;5014683;28;99741;-71
2022/05/11 02:43:36;;;;;;;6.07;4.32;;;16.20;89.20;;;;;;5014236;28;109711;-71
2022/05/11 02:46:03;;;;;;;6.88;5.28;;;16.20;89.30;;;;;;5014606;28;99071;-71
2022/05/11 02:48:32;;;;;;;6.30;4.65;;;16.20;89.50;;;;;;4980233;28;98566;-71
2022/05/11 02:51:00;;;;;;;5.93;4.47;;;16.20;89.50;;;;;;5015084;28;98498;-71
2022/05/11 02:53:29;;;;;;;5.93;5.15;;;16.20;89.60;;;;;;4996574;28;101802;-71
2022/05/11 02:55:57;;;;;;;5.35;4.85;;;16.30;89.70;;;;;;5013130;28;101769;-71
2022/05/11 02:58:27;;;;;;;5.22;4.53;;;16.30;89.70;;;;;;5013926;28;97943;-71
2022/05/11 03:00:58;;;;;;;5.70;4.50;;;16.30;89.90;;;;;;5018429;28;98496;-71
2022/05/11 03:03:25;;;;;;;6.45;4.90;;;16.30;90.00;;;;;;5034798;28;99451;-71
2022/05/11 03:05:52;;;;;;;5.95;5.35;;;16.20;90.10;;;;;;5032303;28;101740;-71
2022/05/11 03:08:20;;;;;;;5.47;4.63;;;16.20;90.10;;;;;;5035025;28;98414;-71
2022/05/11 03:10:48;;;;;;;5.55;5.05;;;16.20;90.20;;;;;;5034830;28;98979;-71
2022/05/11 03:13:16;;;;;;;6.22;5.30;;;16.20;90.20;;;;;;5016284;28;99356;-71
2022/05/11 03:15:43;;;;;;;7.30;5.45;;;16.20;90.30;;;;;;5015429;28;101520;-71
2022/05/11 03:18:10;;;;;;;7.13;4.93;;;16.20;90.30;;;;;;5016909;28;98557;-71
2022/05/11 03:20:37;;;;;;;6.18;4.97;;;16.20;90.40;;;;;;5016184;28;98542;-71
2022/05/11 03:23:04;;;;;;;7.50;6.10;;;16.20;90.40;;;;;;5034761;28;98485;-71
2022/05/11 03:25:31;;;;;;;6.25;5.00;;;16.20;90.40;;;;;;5015527;28;111989;-71
2022/05/11 03:27:59;;;;;;;7.85;4.97;;;16.20;90.50;;;;;;5016589;28;98830;-71
2022/05/11 03:30:26;;;;;;;9.10;5.03;;;16.30;90.50;;;;;;5016089;28;99265;-71
2022/05/11 03:35:38;;;;;;;7.03;5.75;;;16.30;90.50;;;;;;5015662;28;100048;-71
2022/05/11 03:38:05;;;;;;;5.63;5.07;;;16.20;90.70;;;;;;5016127;28;98581;-71
2022/05/11 03:40:37;;;;;;;6.85;4.70;;;16.20;90.60;;;;;;4999231;28;98579;-71
2022/05/11 03:43:05;;;;;;;6.88;5.30;;;16.20;90.60;;;;;;5034196;28;100256;-71
2022/05/11 03:45:33;;;;;;;6.85;4.63;;;16.20;90.60;;;;;;5032453;28;100130;-71
2022/05/11 03:48:00;;;;;;;7.75;5.25;;;16.30;90.60;;;;;;5016648;28;98217;-71
2022/05/11 03:50:27;;;;;;;6.65;4.10;;;16.20;90.60;;;;;;5016341;28;98525;-71
2022/05/11 03:52:56;;;;;;;7.00;4.35;;;16.30;90.60;;;;;;5033376;28;102321;-71
2022/05/11 03:55:24;;;;;;;7.45;5.82;;;16.20;90.60;;;;;;5033417;28;99456;-71
2022/05/11 03:57:51;;;;;;;6.50;4.72;;;16.30;90.60;;;;;;4999359;28;98615;-71
2022/05/11 04:00:21;;;;;;;7.60;4.60;;;16.30;90.60;;;;;;5015897;28;98988;-71
2022/05/11 04:02:52;;;;;;;4.32;3.92;;;16.30;90.60;;;;;;5015011;28;101818;-71
2022/05/11 04:05:20;;;;;;;7.45;4.07;;;16.30;90.60;;;;;;5033488;28;99017;-72
2022/05/11 04:07:47;;;;;;;8.35;4.53;;;16.30;90.60;;;;;;5033927;28;98512;-71
2022/05/11 04:10:16;;;;;;;5.55;4.35;;;16.30;90.60;;;;;;5034085;28;98466;-71
2022/05/11 04:12:43;;;;;;;6.70;4.15;;;16.30;90.60;;;;;;5033720;28;98907;-71
2022/05/11 04:15:11;;;;;;;6.93;5.57;;;16.30;90.90;;;;;;5015052;28;100909;-71
2022/05/11 04:17:39;;;;;;;6.32;4.75;;;16.30;90.70;;;;;;5014777;28;102758;-71
2022/05/11 04:20:08;;;;;;;10.73;4.70;;;16.30;90.70;;;;;;5015280;28;99525;-71
2022/05/11 04:22:35;;;;;;;10.25;5.18;;;16.30;90.80;;;;;;5015053;28;101974;-71
2022/05/11 04:25:03;;;;;;;6.30;4.93;;;16.30;90.80;;;;;;5015286;28;98767;-71
2022/05/11 04:27:30;;;;;;;5.47;4.75;;;16.30;90.80;;;;;;4999389;28;98549;-71
2022/05/11 04:29:57;;;;;;;8.98;4.93;;;16.30;90.80;;;;;;5033638;28;98603;-71
2022/05/11 04:32:24;;;;;;;7.90;5.22;;;16.40;90.70;;;;;;5014884;28;101824;-71
2022/05/11 04:34:51;;;;;;;8.52;6.10;;;16.40;90.70;;;;;;5031513;28;101774;-71
2022/05/11 04:37:18;;;;;;;7.32;5.05;;;16.40;90.60;;;;;;5034046;28;97731;-71
2022/05/11 04:39:45;;;;;;;7.70;5.00;;;16.40;90.60;;;;;;5015646;28;98899;-71
2022/05/11 04:42:12;;;;;;;8.30;5.53;;;16.50;90.60;;;;;;5033150;28;99194;-71
2022/05/11 04:44:39;;;;;;;8.00;5.72;;;16.50;90.60;;;;;;5032696;28;99306;-71
2022/05/11 04:47:08;;;;;;;6.30;4.90;;;16.50;90.50;;;;;;5033229;28;98516;-71
2022/05/11 04:49:36;;;;;;;5.60;4.47;;;16.50;90.50;;;;;;5033186;28;98507;-71
2022/05/11 04:52:07;;;;;;;7.25;5.38;;;16.50;90.50;;;;;;5013997;28;99356;-71
2022/05/11 04:54:39;;;;;;;9.05;5.47;;;16.50;90.40;;;;;;5032885;28;99179;-71
2022/05/11 04:57:07;;;;;;;8.75;5.55;;;16.60;90.40;;;;;;5015169;28;98706;-71
2022/05/11 04:59:35;;;;;;;11.07;5.30;;;16.60;90.40;;;;;;5031849;28;98588;-71
2022/05/11 05:02:03;;;;;;;8.25;5.40;;;16.60;90.50;;;;;;5032940;28;98565;-71
2022/05/11 05:04:31;;;;;;;8.23;5.15;;;16.60;90.50;;;;;;5032517;28;98515;-71
2022/05/11 05:06:59;;;;;;;8.48;5.38;;;16.70;90.50;;;;;;5031248;28;98937;-71
2022/05/11 05:09:26;;;;;;;9.35;5.38;;;16.70;90.40;;;;;;5031115;28;99350;-71
2022/05/11 05:11:53;;;;;;;8.48;5.07;;;16.70;90.40;;;;;;5032457;28;99249;-71
2022/05/11 05:14:20;;;;;;;6.80;5.38;;;16.80;90.40;;;;;;5014094;28;101243;-71
2022/05/11 05:16:48;;;;;;;7.55;5.80;;;16.80;90.30;;;;;;5032628;28;98506;-71
2022/05/11 05:19:15;;;;;;;7.32;5.07;;;16.90;90.20;;;;;;5032696;28;98562;-71
2022/05/11 05:21:42;;;;;;;6.25;5.10;;;16.90;90.10;;;;;;5014153;28;105837;-71
2022/05/11 05:24:09;;;;;;;6.95;5.43;;;17.00;90.00;;;;;;5013835;28;101292;-71
2022/05/11 05:26:36;;;;;;;7.80;5.20;;;17.00;89.90;;;;;;5031578;28;97866;-71
2022/05/11 05:31:48;;;;;;;7.65;6.10;;;17.20;89.50;;;;;;5032562;28;99318;-71
2022/05/11 05:34:16;;;;;;;8.43;5.15;;;17.20;89.40;;;;;;5030129;28;101527;-71
2022/05/11 05:36:42;;;;;;;8.50;5.03;;;17.30;89.20;;;;;;5014408;28;98944;-71
2022/05/11 05:39:10;;;;;;;7.95;5.65;;;17.30;89.10;;;;;;5014038;28;98598;-71
2022/05/11 05:41:37;;;;;;;8.30;5.60;;;17.40;88.90;;;;;;5030291;28;101817;-71
2022/05/11 05:44:06;;;;;;;8.10;6.25;;;17.40;88.70;;;;;;4996999;28;101674;-71
2022/05/11 05:46:36;;;;;;;8.00;6.28;;;17.50;88.50;;;;;;5032409;28;98415;-71
2022/05/11 05:49:03;;;;;;;9.25;6.05;;;17.60;88.90;;;;;;4998027;28;98533;-71
2022/05/11 05:51:30;;;;;;;11.30;6.20;;;17.60;88.10;;;;;;5032076;28;111124;-71
2022/05/11 05:53:58;;;;;;;7.93;5.95;;;17.70;88.00;;;;;;5013508;28;100899;-71
2022/05/11 05:56:24;;;;;;;10.48;7.05;;;17.70;87.70;;;;;;5032638;28;98502;-71
2022/05/11 05:58:55;;;;;;;8.63;5.85;;;17.80;87.50;;;;;;5032222;28;99243;-71
2022/05/11 06:01:22;;;;;;;8.15;6.90;;;17.80;87.40;;;;;;5014460;28;99360;-71
2022/05/11 06:03:49;;;;;;;11.57;6.50;;;17.80;87.20;;;;;;5015612;28;101310;-71
2022/05/11 06:06:16;;;;;;;8.30;6.30;;;17.90;87.10;;;;;;5034483;28;98578;-71
2022/05/11 06:08:43;;;;;;;9.98;7.25;;;18.00;86.90;;;;;;5034449;28;98573;-71
2022/05/11 06:11:10;;;;;;;11.05;8.30;;;18.00;86.60;;;;;;5017215;28;99397;-71
2022/05/11 06:13:38;;;;;;;13.27;8.30;;;18.10;86.50;;;;;;5035195;28;99046;-71
2022/05/11 06:16:11;;;;;;;14.93;8.80;;;18.20;86.30;;;;;;5035929;28;98221;-71
2022/05/11 06:18:41;;;;;;;12.20;8.30;;;18.20;85.90;;;;;;5035735;28;98491;-72
2022/05/11 06:21:09;;;;;;;13.73;9.05;;;18.30;85.70;;;;;;5017750;28;99353;-71
2022/05/11 06:23:37;;;;;;;11.82;7.60;;;18.40;85.50;;;;;;5016959;28;99211;-71
2022/05/11 06:26:04;;;;;;;11.95;8.63;;;18.50;85.20;;;;;;5035346;28;98499;-71
2022/05/11 06:28:31;;;;;;;13.55;7.72;;;18.60;84.80;;;;;;5000788;28;98604;-71
2022/05/11 06:31:16;;;;;;;12.90;8.70;;;18.70;84.50;;;;;;5019175;28;101837;-71
2022/05/11 06:33:47;;;;;;;9.77;8.23;;;18.80;84.00;;;;;;5017096;28;99078;-71
2022/05/11 06:36:14;;;;;;;10.93;8.13;;;18.90;83.50;;;;;;5018154;28;98487;-71
2022/05/11 06:38:41;;;;;;;11.48;7.50;;;18.90;83.10;;;;;;5034014;28;98633;-71
2022/05/11 06:41:14;;;;;;;13.50;8.43;;;19.00;82.90;;;;;;5034949;28;98603;-71
2022/05/11 06:43:42;;;;;;;10.02;7.18;;;19.20;82.40;;;;;;5033385;28;100890;-71
2022/05/11 06:46:08;;;;;;;10.18;6.78;;;19.30;82.00;;;;;;5016811;28;98643;-72
2022/05/11 06:48:36;;;;;;;10.77;6.60;;;19.50;81.40;;;;;;5034839;28;99318;-72
2022/05/11 06:51:03;;;;;;;10.32;6.25;;;19.70;80.60;;;;;;5016775;28;99365;-72
2022/05/11 06:59:16;;;;;;;10.05;6.50;;;19.80;79.90;;;;;;5016678;28;99083;-72
2022/05/11 06:59:21;;;;;;;8.18;5.50;;;20.20;77.90;;;;;;5035188;28;98530;-72
2022/05/11 07:01:49;;;;;;;10.75;5.22;;;20.40;77.00;;;;;;5034848;28;99382;-72
2022/05/11 07:04:16;;;;;;;9.98;5.82;;;20.60;76.30;;;;;;5032835;28;101717;-72
2022/05/11 07:06:43;;;;;;;6.93;5.28;;;20.60;75.40;;;;;;5035277;28;97774;-72
2022/05/11 07:09:10;;;;;;;9.65;4.35;;;20.70;75.00;;;;;;5034432;28;98549;-72
2022/05/11 07:14:24;;;;;;;8.50;6.13;;;20.80;74.20;;;;;;5033341;27;99355;-72
2022/05/11 07:16:50;;;;;;;9.27;4.93;;;20.70;74.30;;;;;;5016661;28;98629;-72
2022/05/11 07:19:21;;;;;;;9.05;4.60;;;20.70;73.60;;;;;;5016261;28;98569;-72
2022/05/11 07:21:48;;;;;;;9.60;4.55;;;20.80;73.10;;;;;;5034597;28;99311;-72
2022/05/11 07:24:15;;;;;;;10.48;4.60;;;20.80;73.10;;;;;;5015798;28;100274;-72
2022/05/11 07:26:42;;;;;;;7.15;5.97;;;20.90;73.00;;;;;;5034918;28;98678;-72
2022/05/11 07:29:09;;;;;;;11.15;5.07;;;21.00;72.30;;;;;;5034567;28;98498;-72
2022/05/11 07:31:40;;;;;;;7.75;5.38;;;21.20;71.40;;;;;;5017458;28;98576;-72
2022/05/11 07:34:07;;;;;;;13.15;4.55;;;21.40;70.90;;;;;;5032552;28;98602;-72
2022/05/11 07:36:34;;;;;;;7.18;3.22;;;21.60;70.30;;;;;;5034308;28;98411;-72
2022/05/11 07:39:01;;;;;;;6.45;3.40;;;21.80;69.80;;;;;;5015889;28;99362;-72
2022/05/11 07:41:28;;;;;;;8.02;4.15;;;21.80;69.40;;;;;;5033620;28;103989;-72
2022/05/11 07:43:55;;;;;;;7.15;4.25;;;22.00;69.00;;;;;;5032723;28;98903;-72
2022/05/11 07:46:22;;;;;;;5.38;3.42;;;22.00;68.50;;;;;;5034247;28;98509;-72
2022/05/11 07:48:50;;;;;;;7.30;3.67;;;22.00;67.90;;;;;;5016315;28;99117;-72
2022/05/11 07:51:17;;;;;;;10.27;4.43;;;22.00;67.80;;;;;;5033725;28;99271;-72
2022/05/11 07:53:46;;;;;;;11.02;4.53;;;22.10;68.00;;;;;;5015931;28;99071;-72
2022/05/11 08:01:46;;;;;;;8.13;4.32;;;22.80;65.70;;;;;;5012092;28;99495;-72
2022/05/11 08:04:13;;;;;;;6.40;3.28;;;23.40;64.40;;;;;;5015427;28;99730;-72
2022/05/11 08:06:40;;;;;;;5.80;5.18;;;23.80;62.90;;;;;;4998760;28;98655;-72
2022/05/11 08:09:08;;;;;;;11.95;4.05;;;24.00;61.70;;;;;;4999170;28;98564;-72
2022/05/11 08:11:35;;;;;;;8.50;3.72;;;24.20;61.40;;;;;;5014730;28;101838;-72
2022/05/11 08:14:02;;;;;;;7.85;5.03;;;24.20;60.60;;;;;;5033471;28;98869;-72
2022/05/11 08:16:29;;;;;;;10.20;4.15;;;24.30;60.80;;;;;;5031971;28;98598;-72
2022/05/11 08:18:56;;;;;;;8.50;3.67;;;24.30;59.60;;;;;;4999097;28;98718;-72
2022/05/11 08:21:24;;;;;;;8.75;2.70;;;24.40;58.90;;;;;;4999108;28;98649;-72
2022/05/11 08:23:51;;;;;;;5.97;3.90;;;24.50;58.10;;;;;;4998608;28;99467;-72
2022/05/11 08:26:18;;;;;;;4.63;3.40;;;24.80;58.00;;;;;;5033685;27;98505;-72
2022/05/11 08:28:45;;;;;;;7.07;3.00;;;25.40;56.90;;;;;;5014968;28;99300;-72
2022/05/11 08:33:58;;;;;;;5.35;2.67;;;26.90;53.30;;;;;;5029831;28;98916;-78
2022/05/11 08:36:36;;;;;;;7.15;2.80;;;27.80;50.60;;;;;;4987047;28;98930;-78
2022/05/11 08:39:04;;;;;;;5.68;2.60;;;28.50;48.00;;;;;;5006449;28;99547;-81
2022/05/11 08:41:45;;;;;;;7.40;2.55;;;29.00;45.50;;;;;;5000443;28;101862;-75
2022/05/11 08:44:15;;;;;;;6.72;2.88;;;29.50;43.80;;;;;;4995583;28;99167;-73
2022/05/11 08:47:10;;;;;;;4.60;2.72;;;29.50;43.60;;;;;;4997936;28;98917;-73
2022/05/11 08:49:59;;;;;;;6.55;2.30;;;30.00;42.20;;;;;;4999592;28;98576;-73
2022/05/11 08:52:43;;;;;;;5.32;2.83;;;30.20;41.80;;;;;;5007001;28;100387;-73
2022/05/11 08:55:12;;;;;;;6.63;3.25;;;30.30;40.60;;;;;;5014343;28;101434;-73
2022/05/11 08:57:41;;;;;;;5.50;2.42;;;30.10;40.70;;;;;;5033133;28;98520;-73
2022/05/11 09:00:14;;;;;;;5.97;2.85;;;30.00;40.50;;;;;;5014852;28;98534;-73
2022/05/11 09:02:49;;;;;;;7.60;2.53;;;29.90;40.40;;;;;;5014347;28;101969;-73
2022/05/11 09:05:20;;;;;;;6.18;2.50;;;29.60;40.80;;;;;;5014425;28;100378;-73
2022/05/11 09:07:49;;;;;;;7.63;2.88;;;29.30;41.30;;;;;;5033063;28;98527;-73
2022/05/11 09:10:24;;;;;;;3.40;2.00;;;29.00;42.20;;;;;;5033409;28;98887;-73
2022/05/11 09:12:53;;;;;;;8.35;2.65;;;28.80;41.90;;;;;;5031830;28;98535;-73
2022/05/11 09:15:20;;;;;;;5.20;2.15;;;28.50;42.10;;;;;;5031932;28;111642;-73
2022/05/11 09:17:48;;;;;;;6.25;3.35;;;28.40;42.20;;;;;;5010551;28;98600;-73
2022/05/11 09:20:21;;;;;;;6.05;3.10;;;28.20;42.60;;;;;;5012492;28;99282;-73
2022/05/11 09:22:54;;;;;;;6.18;2.28;;;28.00;42.60;;;;;;5010900;28;101812;-73
2022/05/11 09:25:30;;;;;;;7.70;2.88;;;27.70;42.60;;;;;;5027667;28;101779;-73
2022/05/11 09:28:34;;;;;;;6.28;2.92;;;27.50;43.30;;;;;;5028481;28;98562;-73
2022/05/11 09:31:23;;;;;;;5.90;2.53;;;27.30;44.00;;;;;;4934162;28;98662;-73
2022/05/11 09:34:06;;;;;;;6.07;2.15;;;27.10;45.10;;;;;;5025020;28;99270;-73
2022/05/11 09:37:03;;;;;;;5.32;3.58;;;26.80;44.50;;;;;;5010554;28;101661;-73
2022/05/11 09:39:34;;;;;;;6.97;3.08;;;26.60;45.40;;;;;;5034820;28;97862;-73
2022/05/11 09:42:19;;;;;;;6.32;3.33;;;26.40;46.10;;;;;;5019341;28;98634;-73
2022/05/11 09:44:49;;;;;;;7.38;3.47;;;26.40;46.40;;;;;;5018715;28;99253;-73
2022/05/11 09:47:31;;;;;;;7.03;3.75;;;26.30;46.80;;;;;;5018465;28;99678;-73
2022/05/11 09:50:20;;;;;;;6.68;2.33;;;26.30;46.10;;;;;;5034537;28;98632;-73
2022/05/11 09:52:48;;;;;;;7.88;3.58;;;26.20;46.60;;;;;;5018717;28;98564;-73
2022/05/11 09:55:24;;;;;;;8.15;2.95;;;26.10;46.90;;;;;;5018434;28;99283;-73
2022/05/11 09:58:01;;;;;;;6.40;2.33;;;26.00;47.20;;;;;;5016926;28;102633;-73
2022/05/11 10:00:38;;;;;;;6.78;2.35;;;25.90;47.00;;;;;;5019301;28;98479;-73
2022/05/11 10:03:16;;;;;;;4.40;2.03;;;26.00;47.10;;;;;;5019239;28;98947;-73
2022/05/11 10:05:47;;;;;;;7.05;2.85;;;26.00;46.40;;;;;;5017269;28;101196;-73
2022/05/11 10:08:36;;;;;;;6.55;3.10;;;26.00;46.80;;;;;;5033960;28;100870;-73
2022/05/11 10:11:13;;;;;;;6.40;3.42;;;26.00;46.00;;;;;;5019330;28;98859;-73
2022/05/11 10:13:52;;;;;;;4.05;2.03;;;25.90;46.30;;;;;;5018501;28;99302;-73
2022/05/11 10:22:33;;;;;;;5.07;3.58;;;25.90;46.40;;;;;;5039336;28;99057;-73
2022/05/11 10:25:15;;;;;;;6.55;2.47;;;25.70;46.80;;;;;;5020000;28;98627;-73
2022/05/11 10:28:00;;;;;;;6.90;2.35;;;25.50;47.00;;;;;;5020099;28;100385;-73
2022/05/11 10:31:02;;;;;;;7.32;1.92;;;25.50;47.50;;;;;;5038638;28;98534;-73
2022/05/11 10:34:08;;;;;;;6.35;1.77;;;25.40;47.60;;;;;;5039071;28;98223;-73
2022/05/11 10:36:59;;;;;;;5.68;1.77;;;25.50;48.40;;;;;;5035275;28;100618;-73
2022/05/11 10:39:47;;;;;;;3.78;1.40;;;25.50;46.80;;;;;;5020177;28;101733;-73
2022/05/11 10:42:20;;;;;;;;;;;25.50;46.80;;;;;;5038630;28;99269;-73
2022/05/11 10:44:52;;;;;;;5.68;1.60;;;25.20;46.90;;;;;;5021405;28;98677;-73
2022/05/11 10:47:57;;;;;;;4.65;2.58;;;25.50;47.40;;;;;;5037173;28;99002;-73
2022/05/11 10:50:42;;;;;;;4.70;1.50;;;25.70;45.30;;;;;;5021034;27;99237;-73
2022/05/11 10:53:21;;;;;;;5.80;2.15;;;25.80;45.70;;;;;;5034816;28;98969;-73
2022/05/11 10:56:12;;;;;;;4.18;2.78;;;25.80;45.70;;;;;;5035009;28;98517;-73
2022/05/11 10:58:45;;;;;;;4.47;1.85;;;25.90;44.40;;;;;;5035133;28;98518;-73
2022/05/11 11:01:13;;;;;;;5.70;2.73;;;25.80;45.00;;;;;;5035149;28;98551;-73
2022/05/11 11:04:27;;;;;;;5.72;3.10;;;25.70;46.00;;;;;;5016823;28;98510;-73
2022/05/11 11:07:15;;;;;;;6.03;2.13;;;25.70;46.40;;;;;;5033633;28;98557;-73
2022/05/11 11:10:01;;;;;;;5.85;3.15;;;25.70;46.00;;;;;;5016270;28;99254;-73
2022/05/11 11:12:41;;;;;;;4.97;1.63;;;25.60;46.40;;;;;;5032996;28;103184;-73
2022/05/11 11:15:14;;;;;;;4.43;3.33;;;25.50;45.90;;;;;;5034275;28;99051;-73
2022/05/11 11:17:43;;;;;;;4.60;2.10;;;25.50;45.80;;;;;;5034747;28;98549;-73
2022/05/11 11:20:15;;;;;;;3.78;1.67;;;25.50;45.50;;;;;;5034560;28;98498;-73
2022/05/11 11:23:01;;;;;;;5.90;2.55;;;25.60;45.90;;;;;;5034462;28;99098;-73
2022/05/11 11:25:56;;;;;;;3.85;2.85;;;25.60;45.00;;;;;;4999456;28;101509;-73
2022/05/11 11:28:24;;;;;;;4.68;1.80;;;25.50;45.00;;;;;;5017168;28;97786;-73
2022/05/11 11:30:57;;;;;;;3.72;1.70;;;25.40;46.00;;;;;;5032288;28;98620;-73
2022/05/11 11:33:39;;;;;;;5.10;2.55;;;25.50;45.80;;;;;;5034132;28;99215;-73
2022/05/11 11:36:30;;;;;;;7.03;1.92;;;25.30;46.30;;;;;;5014928;28;101657;-73
2022/05/11 11:39:04;;;;;;;4.57;1.80;;;25.30;46.90;;;;;;5034153;28;98640;-73
2022/05/11 11:41:51;;;;;;;;;;;25.30;47.10;;;;;;5035242;28;98921;-73
2022/05/11 11:44:21;;;;;;;5.22;2.38;;;25.30;47.00;;;;;;5009668;28;102039;-73
2022/05/11 11:46:50;;;;;;;4.53;2.67;;;25.50;45.20;;;;;;5032648;28;101492;-73
2022/05/11 11:49:18;;;;;;;4.88;1.67;;;25.50;45.10;;;;;;5034155;28;98616;-73
2022/05/11 11:51:50;;;;;;;4.15;2.17;;;25.50;45.30;;;;;;5034192;28;98505;-73
2022/05/11 11:54:32;;;;;;;4.22;1.83;;;25.60;45.20;;;;;;5016552;28;98498;-73
2022/05/11 11:57:01;;;;;;;5.57;2.13;;;25.70;45.60;;;;;;5033161;28;98411;-73
2022/05/11 11:59:28;;;;;;;4.50;3.15;;;25.50;45.40;;;;;;5015617;28;98600;-73
2022/05/11 12:02:08;;;;;;;4.10;2.00;;;25.50;45.30;;;;;;5033096;27;99247;-73
2022/05/11 12:04:42;;;;;;;12.50;2.25;;;25.50;44.90;;;;;;5015786;28;99364;-73
2022/05/11 12:16:22;;;;;;;4.18;1.73;;;25.40;45.10;;;;;;5031533;28;102007;-73
2022/05/11 12:18:49;;;;;;;3.97;1.42;;;25.30;45.20;;;;;;5033436;28;98937;-73
2022/05/11 12:21:29;;;;;;;4.65;1.50;;;25.40;45.50;;;;;;5033450;28;103345;-73
2022/05/11 12:23:58;;;;;;;3.97;2.65;;;25.60;45.70;;;;;;5032227;28;98690;-73
2022/05/11 12:26:35;;;;;;;6.38;3.47;;;25.60;45.80;;;;;;5033184;28;101948;-73
2022/05/11 12:32:01;;;;;;;5.22;2.35;;;25.70;44.90;;;;;;5015160;28;98560;-73
2022/05/11 12:34:30;;;;;;;5.93;2.25;;;25.60;44.90;;;;;;5015411;28;98498;-73
2022/05/11 12:36:57;;;;;;;11.23;2.13;;;25.60;45.40;;;;;;5014558;28;101804;-73
2022/05/11 12:39:36;;;;;;;3.78;2.85;;;25.50;45.00;;;;;;5033127;28;98947;-73
2022/05/11 12:42:04;;;;;;;4.63;2.20;;;25.70;45.10;;;;;;5033228;28;98421;-73
2022/05/11 12:44:36;;;;;;;7.35;3.42;;;25.60;45.50;;;;;;5033593;28;98481;-73
2022/05/11 12:47:06;;;;;;;7.50;2.60;;;25.70;45.50;;;;;;4998265;28;101075;-73
2022/05/11 12:49:34;;;;;;;4.57;2.85;;;25.70;45.40;;;;;;5014613;28;99359;-73
2022/05/11 12:52:03;;;;;;;4.43;2.03;;;25.70;44.70;;;;;;5033200;28;98497;-73
2022/05/11 12:54:32;;;;;;;5.80;2.05;;;25.80;44.40;;;;;;5032904;28;99249;-73
2022/05/11 12:57:05;;;;;;;5.70;1.70;;;25.80;44.90;;;;;;5014442;28;101853;-73
2022/05/11 12:59:35;;;;;;;6.30;2.40;;;25.80;45.30;;;;;;5032675;28;99453;-73
2022/05/11 13:02:16;;;;;;;5.70;1.85;;;25.70;44.90;;;;;;5033259;28;98540;-73
2022/05/11 13:04:52;;;;;;;4.68;2.83;;;25.70;44.60;;;;;;5033318;28;98558;-73
2022/05/11 13:07:26;;;;;;;5.25;2.22;;;25.60;45.20;;;;;;5031042;28;101755;-73
2022/05/11 13:09:57;;;;;;;5.60;2.25;;;25.70;44.90;;;;;;5031252;28;101608;-73
2022/05/11 13:12:25;;;;;;;5.43;3.58;;;25.80;44.60;;;;;;5031419;27;98132;-73
2022/05/11 13:14:55;;;;;;;4.70;2.50;;;25.90;44.30;;;;;;5032882;28;98396;-73
2022/05/11 13:17:36;;;;;;;4.13;1.77;;;26.00;44.10;;;;;;5027043;28;100267;-73
2022/05/11 13:20:12;;;;;;;6.35;2.65;;;26.10;42.90;;;;;;5010406;28;100352;-73
2022/05/11 13:22:40;;;;;;;8.10;2.60;;;26.10;43.40;;;;;;5011803;28;98519;-73
2022/05/11 13:25:09;;;;;;;5.85;2.40;;;26.10;43.40;;;;;;5011027;28;98589;-73
2022/05/11 13:27:48;;;;;;;8.32;3.17;;;26.00;43.60;;;;;;5012327;28;99225;-73
2022/05/11 13:30:24;;;;;;;7.30;3.42;;;26.00;44.60;;;;;;5012538;28;98900;-73
2022/05/11 13:33:00;;;;;;;7.35;3.67;;;26.00;43.60;;;;;;5011741;28;98986;-73
2022/05/11 13:35:28;;;;;;;7.32;2.20;;;26.00;44.70;;;;;;5011007;28;98559;-73
2022/05/11 13:38:13;;;;;;;7.70;2.05;;;26.00;44.30;;;;;;5012243;28;98505;-73
2022/05/11 13:40:43;;;;;;;9.93;3.15;;;26.10;42.80;;;;;;5010898;28;101044;-73
2022/05/11 13:43:35;;;;;;;5.07;2.75;;;26.10;43.00;;;;;;5012527;28;98490;-73
2022/05/11 13:46:25;;;;;;;9.10;3.15;;;26.20;44.10;;;;;;5012306;28;99178;-73